Kent Trader — 9HA4334 — position and weather

sailwx.info

Track history (hours):
 
Tides and Currents Weather Stations Pressure Air Temp Water Temp Dewpoint Dewpoint Depression Visibility Wind Speed Wind Dir Waves Ship Positions

Kent Trader

Last reported at 2018-May-25 22:29 UTC. Time now 2018-May-25 22:46 UTC.
Position N 44°24' E 008°53'.

Length 200 m; draft 8.6 m.

Type: Ship (hazmat cat A). MMSI: 249682000.

Date/timePositionNaut miles runAvg speedWind from/ knotsBaromVisibWave heightAir tempDewpointWater temp
2018-May-25 22:29N 44°24' E 008°53'0 0.0
2018-May-25 21:59N 44°24' E 008°53'0 0.0
2018-May-25 21:26N 44°24' E 008°53'0 0.0
2018-May-25 20:59N 44°24' E 008°53'0 0.0
2018-May-25 20:26N 44°24' E 008°53'0 0.0
2018-May-25 19:59N 44°24' E 008°53'0 0.0
2018-May-25 19:26N 44°24' E 008°53'0 0.0
2018-May-25 18:59N 44°24' E 008°53'0 0.0
2018-May-25 18:29N 44°24' E 008°53'0 0.0
2018-May-25 17:59N 44°24' E 008°53'0 0.0
2018-May-25 17:29N 44°24' E 008°53'0 0.0
2018-May-25 16:59N 44°24' E 008°53'0 0.0
2018-May-25 16:29N 44°24' E 008°53'0 0.0
2018-May-25 15:59N 44°24' E 008°53'0 0.0
2018-May-25 15:29N 44°24' E 008°53'0 0.0
2018-May-25 14:59N 44°24' E 008°53'0 0.0
2018-May-25 14:29N 44°24' E 008°53'0 0.0
2018-May-25 13:59N 44°24' E 008°53'0 0.0
2018-May-25 13:29N 44°24' E 008°53'0 0.0
2018-May-25 12:59N 44°24' E 008°53'0 0.0
2018-May-25 12:29N 44°24' E 008°53'0 0.0
2018-May-25 11:59N 44°24' E 008°53'0 0.0
2018-May-25 11:29N 44°24' E 008°53'0 0.0
2018-May-25 10:59N 44°24' E 008°53'0 0.0
2018-May-25 10:29N 44°24' E 008°53'0 0.0
2018-May-25 09:56N 44°24' E 008°53'0 0.0
2018-May-25 09:26N 44°24' E 008°53'0 0.0
2018-May-25 08:59N 44°24' E 008°53'0 0.0
2018-May-25 08:29N 44°24' E 008°53'0 0.0
2018-May-25 07:59N 44°24' E 008°53'0 0.4
2018-May-25 07:30N 44°24' E 008°53'2 4.5
2018-May-25 07:00N 44°24' E 008°56'4 7.3
2018-May-25 06:31N 44°20' E 008°59'3 6.9
2018-May-25 06:00N 44°18' E 008°56'3 6.1
2018-May-25 05:30N 44°16' E 008°53'611.4
2018-May-25 05:00N 44°12' E 008°47'611.4
2018-May-25 04:30N 44°08' E 008°42'611.4
2018-May-25 04:00N 44°04' E 008°36'611.4
2018-May-25 03:29N 43°59' E 008°30'611.1
2018-May-25 02:58N 43°55' E 008°24'510.5
2018-May-25 02:30N 43°52' E 008°20'7 9.8
2018-May-25 01:45N 43°47' E 008°12'2 9.9
2018-May-25 01:30N 43°45' E 008°10'510.0
2018-May-25 00:58N 43°42' E 008°04'5 9.9
2018-May-25 00:30N 43°39' E 007°59'6 9.9
2018-May-24 23:56N 43°35' E 007°54'510.3
2018-May-24 23:25N 43°31' E 007°48'1410.4
2018-May-24 22:02N 43°22' E 007°33'210.6
2018-May-24 21:52N 43°20' E 007°32'610.5
2018-May-24 21:20N 43°17' E 007°26'310.7
2018-May-24 21:00N 43°15' E 007°22'510.9
2018-May-24 20:30N 43°11' E 007°16'610.8
2018-May-24 19:59N 43°07' E 007°11'610.9
2018-May-24 19:28N 43°03' E 007°05'510.7
2018-May-24 19:00N 43°00' E 006°60'710.8
2018-May-24 18:20N 42°56' E 006°52'410.6
2018-May-24 18:00N 42°53' E 006°49'510.6
2018-May-24 17:30N 42°50' E 006°43'510.6
2018-May-24 17:00N 42°46' E 006°38'611.0
2018-May-24 16:30N 42°43' E 006°32'611.0
2018-May-24 15:57N 42°39' E 006°26'510.8
2018-May-24 15:30N 42°36' E 006°21'610.9
2018-May-24 15:00N 42°32' E 006°15'610.5
2018-May-24 14:24N 42°28' E 006°09'5910.9
2018-May-24 09:00N 41°49' E 005°09'611.0
2018-May-24 08:30N 41°46' E 005°04'510.8
2018-May-24 08:00N 41°42' E 004°58'1311.0
2018-May-24 06:48N 41°33' E 004°45'311.6
2018-May-24 06:30N 41°31' E 004°41'811.9
2018-May-24 05:52N 41°26' E 004°34'1811.7
2018-May-24 04:18N 41°14' E 004°15'711.5
2018-May-24 03:40N 41°09' E 004°08'211.4
2018-May-24 03:30N 41°08' E 004°06'611.0
2018-May-24 03:00N 41°04' E 004°01'611.0
2018-May-24 02:27N 41°00' E 003°55'2311.1
2018-May-24 00:21N 40°45' E 003°31'410.9
2018-May-23 23:59N 40°42' E 003°27'510.9
2018-May-23 23:30N 40°39' E 003°22'3011.3
2018-May-23 20:52N 40°20' E 002°53'611.3
2018-May-23 20:20N 40°16' E 002°47'411.2
2018-May-23 20:00N 40°13' E 002°43'711.1
2018-May-23 19:23N 40°09' E 002°36'411.0
2018-May-23 18:58N 40°06' E 002°32'5211.6
2018-May-23 14:30N 39°31' E 001°42'2610.7
2018-May-23 12:03N 39°14' E 001°15'110.7
2018-May-23 11:58N 39°14' E 001°14'810.8
2018-May-23 11:14N 39°09' E 001°07'311.2
2018-May-23 11:00N 39°07' E 001°04'611.3
2018-May-23 10:30N 39°03' E 000°59'711.2
2018-May-23 09:52N 38°58' E 000°52'411.3
2018-May-23 09:30N 38°56' E 000°48'811.3
2018-May-23 08:47N 38°50' E 000°40'611.4
2018-May-23 08:16N 38°47' E 000°34'311.3
2018-May-23 08:00N 38°44' E 000°31'611.3
2018-May-23 07:29N 38°40' E 000°27'612.0
2018-May-23 06:58N 38°35' E 000°22'611.8
2018-May-23 06:30N 38°30' E 000°19'611.8
2018-May-23 06:00N 38°25' E 000°15'611.9
2018-May-23 05:30N 38°21' E 000°10'611.9
2018-May-23 05:00N 38°16' E 000°06'611.7
2018-May-23 04:30N 38°11' E 000°01'611.6
2018-May-23 04:00N 38°06' W 000°03'611.6
2018-May-23 03:30N 38°01' W 000°07'611.4
2018-May-23 03:00N 37°57' W 000°11'611.3
2018-May-23 02:30N 37°52' W 000°15'611.9
2018-May-23 02:00N 37°47' W 000°19'612.6
2018-May-23 01:30N 37°41' W 000°23'612.8
2018-May-23 01:00N 37°36' W 000°27'612.7
2018-May-23 00:30N 37°31' W 000°32'612.7
2018-May-23 00:00N 37°27' W 000°39'612.2
2018-May-22 23:30N 37°23' W 000°45'611.8
2018-May-22 22:59N 37°19' W 000°50'611.8
2018-May-22 22:30N 37°15' W 000°56'1111.4
2018-May-22 21:32N 37°08' W 001°06'011.3
2018-May-22 21:30N 37°08' W 001°06'2511.1
2018-May-22 19:13N 36°45' W 001°21'200 8.1
2018-May-21 18:34N 36°06' W 005°25'0 0.1
2018-May-21 18:31N 36°06' W 005°25'0 0.2
2018-May-21 18:00N 36°06' W 005°25'1 2.3
2018-May-21 17:31N 36°05' W 005°24'3 5.4
2018-May-21 17:01N 36°02' W 005°24'611.4
2018-May-21 16:30N 35°58' W 005°28'56612.7
2018-May-19 19:53N 28°60' W 013°01'613.6
2018-May-19 19:25N 28°54' W 013°04'613.6
2018-May-19 18:59N 28°49' W 013°07'613.3
2018-May-19 18:31N 28°44' W 013°11'713.4
2018-May-19 18:00N 28°38' W 013°15'  
2018-May-15 23:11N 10°11' W 017°05'212.3
2018-May-15 23:00N 10°10' W 017°03'611.9
2018-May-15 22:30N 10°05' W 016°60'  
Track history (hours):
 
Tides and Currents Weather Stations Pressure Air Temp Water Temp Dewpoint Dewpoint Depression Visibility Wind Speed Wind Dir Waves Ship Positions

Kent Trader

Last reported at 2018-May-25 22:29 UTC. Time now 2018-May-25 22:46 UTC.
Position N 44°24' E 008°53'.

Length 200 m; draft 8.6 m.

Type: Ship (hazmat cat A). MMSI: 249682000.

Date/timePositionNaut miles runAvg speedWind from/ knotsBaromVisibWave heightAir tempDewpointWater temp
2018-May-25 22:29N 44°24' E 008°53'0 0.0
2018-May-25 21:59N 44°24' E 008°53'0 0.0
2018-May-25 21:26N 44°24' E 008°53'0 0.0
2018-May-25 20:59N 44°24' E 008°53'0 0.0
2018-May-25 20:26N 44°24' E 008°53'0 0.0
2018-May-25 19:59N 44°24' E 008°53'0 0.0
2018-May-25 19:26N 44°24' E 008°53'0 0.0
2018-May-25 18:59N 44°24' E 008°53'0 0.0
2018-May-25 18:29N 44°24' E 008°53'0 0.0
2018-May-25 17:59N 44°24' E 008°53'0 0.0
2018-May-25 17:29N 44°24' E 008°53'0 0.0
2018-May-25 16:59N 44°24' E 008°53'0 0.0
2018-May-25 16:29N 44°24' E 008°53'0 0.0
2018-May-25 15:59N 44°24' E 008°53'0 0.0
2018-May-25 15:29N 44°24' E 008°53'0 0.0
2018-May-25 14:59N 44°24' E 008°53'0 0.0
2018-May-25 14:29N 44°24' E 008°53'0 0.0
2018-May-25 13:59N 44°24' E 008°53'0 0.0
2018-May-25 13:29N 44°24' E 008°53'0 0.0
2018-May-25 12:59N 44°24' E 008°53'0 0.0
2018-May-25 12:29N 44°24' E 008°53'0 0.0
2018-May-25 11:59N 44°24' E 008°53'0 0.0
2018-May-25 11:29N 44°24' E 008°53'0 0.0
2018-May-25 10:59N 44°24' E 008°53'0 0.0
2018-May-25 10:29N 44°24' E 008°53'0 0.0
2018-May-25 09:56N 44°24' E 008°53'0 0.0
2018-May-25 09:26N 44°24' E 008°53'0 0.0
2018-May-25 08:59N 44°24' E 008°53'0 0.0
2018-May-25 08:29N 44°24' E 008°53'0 0.0
2018-May-25 07:59N 44°24' E 008°53'0 0.4
2018-May-25 07:30N 44°24' E 008°53'2 4.5
2018-May-25 07:00N 44°24' E 008°56'4 7.3
2018-May-25 06:31N 44°20' E 008°59'3 6.9
2018-May-25 06:00N 44°18' E 008°56'3 6.1
2018-May-25 05:30N 44°16' E 008°53'611.4
2018-May-25 05:00N 44°12' E 008°47'611.4
2018-May-25 04:30N 44°08' E 008°42'611.4
2018-May-25 04:00N 44°04' E 008°36'611.4
2018-May-25 03:29N 43°59' E 008°30'611.1
2018-May-25 02:58N 43°55' E 008°24'510.5
2018-May-25 02:30N 43°52' E 008°20'7 9.8
2018-May-25 01:45N 43°47' E 008°12'2 9.9
2018-May-25 01:30N 43°45' E 008°10'510.0
2018-May-25 00:58N 43°42' E 008°04'5 9.9
2018-May-25 00:30N 43°39' E 007°59'6 9.9
2018-May-24 23:56N 43°35' E 007°54'510.3
2018-May-24 23:25N 43°31' E 007°48'1410.4
2018-May-24 22:02N 43°22' E 007°33'210.6
2018-May-24 21:52N 43°20' E 007°32'610.5
2018-May-24 21:20N 43°17' E 007°26'310.7
2018-May-24 21:00N 43°15' E 007°22'510.9
2018-May-24 20:30N 43°11' E 007°16'610.8
2018-May-24 19:59N 43°07' E 007°11'610.9
2018-May-24 19:28N 43°03' E 007°05'510.7
2018-May-24 19:00N 43°00' E 006°60'710.8
2018-May-24 18:20N 42°56' E 006°52'410.6
2018-May-24 18:00N 42°53' E 006°49'510.6
2018-May-24 17:30N 42°50' E 006°43'510.6
2018-May-24 17:00N 42°46' E 006°38'611.0
2018-May-24 16:30N 42°43' E 006°32'611.0
2018-May-24 15:57N 42°39' E 006°26'510.8
2018-May-24 15:30N 42°36' E 006°21'610.9
2018-May-24 15:00N 42°32' E 006°15'610.5
2018-May-24 14:24N 42°28' E 006°09'5910.9
2018-May-24 09:00N 41°49' E 005°09'611.0
2018-May-24 08:30N 41°46' E 005°04'510.8
2018-May-24 08:00N 41°42' E 004°58'1311.0
2018-May-24 06:48N 41°33' E 004°45'311.6
2018-May-24 06:30N 41°31' E 004°41'811.9
2018-May-24 05:52N 41°26' E 004°34'1811.7
2018-May-24 04:18N 41°14' E 004°15'711.5
2018-May-24 03:40N 41°09' E 004°08'211.4
2018-May-24 03:30N 41°08' E 004°06'611.0
2018-May-24 03:00N 41°04' E 004°01'611.0
2018-May-24 02:27N 41°00' E 003°55'2311.1
2018-May-24 00:21N 40°45' E 003°31'410.9
2018-May-23 23:59N 40°42' E 003°27'510.9
2018-May-23 23:30N 40°39' E 003°22'3011.3
2018-May-23 20:52N 40°20' E 002°53'611.3
2018-May-23 20:20N 40°16' E 002°47'411.2
2018-May-23 20:00N 40°13' E 002°43'711.1
2018-May-23 19:23N 40°09' E 002°36'411.0
2018-May-23 18:58N 40°06' E 002°32'5211.6
2018-May-23 14:30N 39°31' E 001°42'2610.7
2018-May-23 12:03N 39°14' E 001°15'110.7
2018-May-23 11:58N 39°14' E 001°14'810.8
2018-May-23 11:14N 39°09' E 001°07'311.2
2018-May-23 11:00N 39°07' E 001°04'611.3
2018-May-23 10:30N 39°03' E 000°59'711.2
2018-May-23 09:52N 38°58' E 000°52'411.3
2018-May-23 09:30N 38°56' E 000°48'811.3
2018-May-23 08:47N 38°50' E 000°40'611.4
2018-May-23 08:16N 38°47' E 000°34'311.3
2018-May-23 08:00N 38°44' E 000°31'611.3
2018-May-23 07:29N 38°40' E 000°27'612.0
2018-May-23 06:58N 38°35' E 000°22'611.8
2018-May-23 06:30N 38°30' E 000°19'611.8
2018-May-23 06:00N 38°25' E 000°15'611.9
2018-May-23 05:30N 38°21' E 000°10'611.9
2018-May-23 05:00N 38°16' E 000°06'611.7
2018-May-23 04:30N 38°11' E 000°01'611.6
2018-May-23 04:00N 38°06' W 000°03'611.6
2018-May-23 03:30N 38°01' W 000°07'611.4
2018-May-23 03:00N 37°57' W 000°11'611.3
2018-May-23 02:30N 37°52' W 000°15'611.9
2018-May-23 02:00N 37°47' W 000°19'612.6
2018-May-23 01:30N 37°41' W 000°23'612.8
2018-May-23 01:00N 37°36' W 000°27'612.7
2018-May-23 00:30N 37°31' W 000°32'612.7
2018-May-23 00:00N 37°27' W 000°39'612.2
2018-May-22 23:30N 37°23' W 000°45'611.8
2018-May-22 22:59N 37°19' W 000°50'611.8
2018-May-22 22:30N 37°15' W 000°56'1111.4
2018-May-22 21:32N 37°08' W 001°06'011.3
2018-May-22 21:30N 37°08' W 001°06'2511.1
2018-May-22 19:13N 36°45' W 001°21'200 8.1
2018-May-21 18:34N 36°06' W 005°25'0 0.1
2018-May-21 18:31N 36°06' W 005°25'0 0.2
2018-May-21 18:00N 36°06' W 005°25'1 2.3
2018-May-21 17:31N 36°05' W 005°24'3 5.4
2018-May-21 17:01N 36°02' W 005°24'611.4
2018-May-21 16:30N 35°58' W 005°28'56612.7
2018-May-19 19:53N 28°60' W 013°01'613.6
2018-May-19 19:25N 28°54' W 013°04'613.6
2018-May-19 18:59N 28°49' W 013°07'613.3
2018-May-19 18:31N 28°44' W 013°11'713.4
2018-May-19 18:00N 28°38' W 013°15'  
2018-May-15 23:11N 10°11' W 017°05'212.3
2018-May-15 23:00N 10°10' W 017°03'611.9
2018-May-15 22:30N 10°05' W 016°60'  

Dump ship's entire track history